Dallas, TX

7:21 PM CST en Enero 27, 2015 (GMT -0600)
Cedars | Change Station
CLOSE
Current Station
Estación meteorológica personal
Location: Dallas, TX
Altura: 453 ft
Estaciones meteorológicas cercanas

Alt 453 ft 32.77 °N, 96.78 °W | Updated 14 minutes ago

Parcialmente nublado
Parcialmente nublado
66.4 ° F
Sensación térmica 66.4 ° F
N
0.0
Viento Variable Viento desde SSO

Hoy
Alta -- | Baja -- ° F
--% Posibilidad de precipitaciones
Ayer
Alta -- | Baja -- ° F
Precip. -- pul
7:25 AM 5:54 PM
Cuarto creciente, 59% visible
Presión 30.10 pul
Visibilidad 10.0 Millas
Nubes Nubes dispersas 33000 ft
Punto de rocío 39 ° F
Humedad 37%
Precipitaciones 0.00 pul
Espesor de la nieve No disponible.
UV 0 de una escala de 12
Polen 7.60 de una escala de 12
Calidad del aire No disponible.
Flu Activity No disponible.
METAR KDAL 280053Z 13005KT 10SM SCT330 19/03 A3010 RMK AO2 SLP191 T01940033

More Conditions Fewer Conditions

Presión 30.10 pul
Visibilidad 10.0 Millas
Nubes Nubes dispersas 33000 ft
Punto de rocío 39 ° F
Humedad 37%
Precipitaciones 0.00 pul
Espesor de la nieve No disponible.
UV 0 de una escala de 12
Polen 7.60 de una escala de 12
Calidad del aire No disponible.
Flu Activity No disponible.
METAR KDAL 280053Z 13005KT 10SM SCT330 19/03 A3010 RMK AO2 SLP191 T01940033

More Conditions Fewer Conditions

10-Day Weather Forecast

Almanac

Astronomía

Jan. 27, 2015 Salida Puesta
Hora real
Crepúsculo civil
Crepúsculo náutico
Crepúsculo astronómico
Luna
Horas de luz
Horas de luz
Tomorrow will be .
, % of the Moon is Illuminated

Extremos de hoy

Máximos del estado Bajos del estado

Community

WunderPhotos

Upload Photos

1,791,024 ¡fotos cargadas!

WunderBlogs® & News

Nearby

Calidad del aire

  Calidad del aire Índice AQ Contaminante
Not available.

Grosos de nieve

Estación Profundido Altura

Actividad de terremotos

Ciudad Distance Mag. Tiempo y dato
Magnitud mínima muestra es 2,5.

Temperaturas de aguas costeras

Lugar Temperatura

Estaciones meteorológicas cercanas